首页
METAR-TAF:

METAR-TAF

机场 :

拉斐特, 印第安纳州, 美国

纬度: 40-24-45N, 经度: 086-56-51W, 海拔: 184米

当前天气观测

该预报发布于39分钟前的18:54 UTC
风速6节,风向东南
温度 28°C
湿度 37%
气压 1019 hPa
能見度: 16.1公里
天空无云

METAR: KLAF 151854Z 13006KT 10SM CLR 28/12 A3008 RMK AO2 SLP182 T02830122

时间: 15:33 (19:33 UTC)

预报

该预报发布于2小时和13分钟前的17:20 UTC
预报有效从15日的 18点(UTC)到 16日的 18点(UTC)
风速9节,风向东南
能見度: 10公里
散云层高于25000英尺
从 16日的 0100点(UTC)
风速5节,风向
能見度: 10公里
散云层高于20000英尺
从 16日的 1500点(UTC)
风速9节,风向
能見度: 10公里
少量云层高于4500英尺
散云层高于20000英尺

TAF: KLAF 151720Z 1518/1618 13009KT P6SM SCT250 FM160100 10005KT P6SM SCT200 FM161500 18009KT P6SM FEW045 SCT200

超过4000个机场的气象观测和天气预报(METAR&TAF报告)。

可查询的气象台以黄色和红色小点在地图上表示。

将鼠标移到小点上方,可查看气象台名称。

然后点击查看天气观测和预报。

如需切换地图:点击带黑十字的绿色按钮放大地图;点击带横线的绿色按钮缩小地图;或者点击绿色箭头查看邻近地区的地图。


METAR-TAF: